createdAt,value
2023-05-12T00:01:50.753Z,98099.22
2023-05-12T00:04:20.217Z,98105.69
2023-05-12T00:06:49.399Z,98105.19
2023-05-12T00:09:19.199Z,98114.38
2023-05-12T00:11:49.585Z,98119.00
2023-05-12T00:14:19.310Z,98128.72
2023-05-12T00:16:52.932Z,98125.19
2023-05-12T00:19:22.996Z,98124.66
2023-05-12T00:21:52.541Z,98129.53
2023-05-12T00:24:21.819Z,98129.53
2023-05-12T00:26:51.066Z,98123.00
2023-05-12T00:29:20.943Z,98130.03
2023-05-12T00:31:50.280Z,98135.44
2023-05-12T00:34:19.718Z,98137.06
2023-05-12T00:36:48.884Z,98142.97
2023-05-12T00:39:17.983Z,98134.59
2023-05-12T00:41:49.101Z,98135.13
2023-05-12T00:44:19.584Z,98128.03
2023-05-12T00:46:48.781Z,98126.34
2023-05-12T00:49:18.339Z,98129.00
2023-05-12T00:51:48.090Z,98125.69
2023-05-12T00:54:18.412Z,98133.47
2023-05-12T00:56:47.730Z,98133.38
2023-05-12T00:59:17.537Z,98137.41
2023-05-12T01:01:48.176Z,98145.47
2023-05-12T01:04:18.611Z,98150.50
2023-05-12T01:07:06.772Z,98148.81
2023-05-12T01:09:36.284Z,98151.16
2023-05-12T01:12:05.810Z,98149.19
2023-05-12T01:14:36.531Z,98159.91
2023-05-12T01:17:13.726Z,98155.28
2023-05-12T01:19:51.877Z,98164.63
2023-05-12T01:22:21.743Z,98159.66
2023-05-12T01:25:01.090Z,98164.38
2023-05-12T01:27:32.879Z,98166.41
2023-05-12T01:30:05.528Z,98167.63
2023-05-12T01:32:37.967Z,98167.28
2023-05-12T01:35:08.559Z,98178.22
2023-05-12T01:37:40.465Z,98176.75
2023-05-12T01:40:10.895Z,98186.63
2023-05-12T01:42:43.152Z,98176.44
2023-05-12T01:45:14.251Z,98172.22
2023-05-12T01:47:43.660Z,98177.69
2023-05-12T01:50:12.908Z,98187.00
2023-05-12T01:52:42.839Z,98179.38
2023-05-12T01:55:14.502Z,98186.22
2023-05-12T01:57:54.630Z,98192.09
2023-05-12T02:00:25.181Z,98190.78
2023-05-12T02:02:58.080Z,98202.88
2023-05-12T02:05:27.469Z,98204.91
2023-05-12T02:07:57.093Z,98209.25
2023-05-12T02:10:26.395Z,98217.78
2023-05-12T02:12:55.735Z,98215.09
2023-05-12T02:15:25.126Z,98216.19
2023-05-12T02:17:56.540Z,98221.50
2023-05-12T02:20:27.179Z,98222.91
2023-05-12T02:22:57.418Z,98227.56
2023-05-12T02:25:26.797Z,98237.09
2023-05-12T02:27:55.910Z,98234.25
2023-05-12T02:30:25.558Z,98240.88
2023-05-12T02:32:54.872Z,98244.31
2023-05-12T02:35:24.127Z,98249.56
2023-05-12T02:37:53.919Z,98249.94
2023-05-12T02:40:23.402Z,98256.47
2023-05-12T02:42:52.718Z,98262.63
2023-05-12T02:45:22.073Z,98262.25
2023-05-12T02:47:51.465Z,98265.91
2023-05-12T02:50:22.835Z,98263.53
2023-05-12T02:52:52.968Z,98269.34
2023-05-12T02:55:22.618Z,98261.94
2023-05-12T02:57:51.769Z,98268.78
2023-05-12T03:00:21.312Z,98271.97
2023-05-12T03:02:50.856Z,98278.47
2023-05-12T03:05:20.332Z,98278.91
2023-05-12T03:07:53.249Z,98280.16
2023-05-12T03:10:23.459Z,98282.31
2023-05-12T03:12:52.833Z,98279.53
2023-05-12T03:15:22.717Z,98283.91
2023-05-12T03:17:52.907Z,98281.75
2023-05-12T03:20:22.140Z,98282.63
2023-05-12T03:22:51.760Z,98274.81
2023-05-12T03:25:21.291Z,98286.69
2023-05-12T03:27:50.470Z,98279.63
2023-05-12T03:30:19.958Z,98287.69
2023-05-12T03:32:49.559Z,98287.34
2023-05-12T03:35:18.948Z,98287.00
2023-05-12T03:37:48.100Z,98280.28
2023-05-12T03:40:19.990Z,98285.75
2023-05-12T03:42:49.583Z,98291.44
2023-05-12T03:45:20.618Z,98302.41
2023-05-12T03:47:50.697Z,98299.03
2023-05-12T03:50:20.242Z,98298.34
2023-05-12T03:52:50.390Z,98298.44
2023-05-12T03:55:19.745Z,98299.13
2023-05-12T03:57:50.611Z,98299.38
2023-05-12T04:00:20.814Z,98297.44
2023-05-12T04:02:50.432Z,98295.31
2023-05-12T04:05:19.610Z,98300.50
2023-05-12T04:07:49.584Z,98302.91
2023-05-12T04:10:19.158Z,98296.84
2023-05-12T04:12:48.757Z,98300.88
2023-05-12T04:15:18.652Z,98306.22
2023-05-12T04:17:48.423Z,98309.19
2023-05-12T04:20:18.178Z,98305.53
2023-05-12T04:22:48.605Z,98297.91
2023-05-12T04:25:17.979Z,98301.25
2023-05-12T04:27:47.144Z,98300.84
2023-05-12T04:30:18.471Z,98308.28
2023-05-12T04:32:49.540Z,98297.47
2023-05-12T04:35:19.084Z,98300.19
2023-05-12T04:37:48.334Z,98306.91
2023-05-12T04:40:19.026Z,98308.47
2023-05-12T04:42:48.852Z,98303.56
2023-05-12T04:45:19.137Z,98308.06
2023-05-12T04:47:48.937Z,98306.25
2023-05-12T04:50:18.400Z,98309.28
2023-05-12T04:52:47.655Z,98307.22
2023-05-12T04:55:19.171Z,98305.97
2023-05-12T04:57:48.620Z,98311.22
2023-05-12T05:00:18.712Z,98296.88
2023-05-12T05:02:48.899Z,98294.03
2023-05-12T05:05:19.639Z,98292.06
2023-05-12T05:07:49.836Z,98291.41
2023-05-12T05:10:19.480Z,98293.59
2023-05-12T05:12:50.097Z,98291.91
2023-05-12T05:15:20.783Z,98293.28
2023-05-12T05:17:50.991Z,98297.63
2023-05-12T05:20:20.582Z,98291.09
2023-05-12T05:22:50.512Z,98293.94
2023-05-12T05:25:21.527Z,98295.94
2023-05-12T05:27:51.142Z,98297.03
2023-05-12T05:30:20.829Z,98296.47
2023-05-12T05:32:50.119Z,98292.16
2023-05-12T05:35:20.870Z,98303.66
2023-05-12T05:37:54.672Z,98301.16
2023-05-12T05:40:24.772Z,98306.56
2023-05-12T05:42:54.195Z,98308.03
2023-05-12T05:45:23.566Z,98301.50
2023-05-12T05:47:54.474Z,98298.66
2023-05-12T05:50:24.367Z,98298.00
2023-05-12T05:52:56.225Z,98299.44
2023-05-12T05:55:27.059Z,98303.00
2023-05-12T05:57:56.395Z,98298.88
2023-05-12T06:00:26.732Z,98299.06
2023-05-12T06:02:56.375Z,98295.31
2023-05-12T06:05:25.882Z,98300.09
2023-05-12T06:07:55.337Z,98304.56
2023-05-12T06:10:24.982Z,98300.66
2023-05-12T06:12:54.204Z,98290.56
2023-05-12T06:15:23.884Z,98294.28
2023-05-12T06:17:53.775Z,98293.47
2023-05-12T06:20:24.348Z,98291.88
2023-05-12T06:22:53.848Z,98287.59
2023-05-12T06:25:23.160Z,98282.69
2023-05-12T06:27:54.041Z,98275.47
2023-05-12T06:30:23.603Z,98284.16
2023-05-12T06:32:57.280Z,98278.56
2023-05-12T06:35:26.622Z,98270.28
2023-05-12T06:37:56.145Z,98272.06
2023-05-12T06:40:25.195Z,98278.69
2023-05-12T06:42:55.423Z,98267.22
2023-05-12T06:45:27.792Z,98264.84
2023-05-12T06:47:58.818Z,98268.03
2023-05-12T06:50:29.444Z,98268.34
2023-05-12T06:52:59.060Z,98259.84
2023-05-12T06:55:28.498Z,98257.09
2023-05-12T06:57:57.645Z,98257.31
2023-05-12T07:00:28.014Z,98252.03
2023-05-12T07:02:57.361Z,98244.94
2023-05-12T07:05:27.481Z,98255.94
2023-05-12T07:07:56.677Z,98244.78
2023-05-12T07:10:26.003Z,98249.03
2023-05-12T07:12:57.201Z,98248.19
2023-05-12T07:15:32.498Z,98241.66
2023-05-12T07:18:02.795Z,98238.22
2023-05-12T07:20:32.873Z,98227.47
2023-05-12T07:23:02.541Z,98225.41
2023-05-12T07:25:32.855Z,98223.25
2023-05-12T07:28:02.315Z,98227.75
2023-05-12T07:30:31.760Z,98217.75
2023-05-12T07:33:02.347Z,98223.69
2023-05-12T07:35:32.190Z,98219.69
2023-05-12T07:38:04.265Z,98222.00
2023-05-12T07:40:33.789Z,98209.44
2023-05-12T07:43:03.724Z,98208.72
2023-05-12T07:45:33.280Z,98212.50
2023-05-12T07:48:02.496Z,98200.56
2023-05-12T07:50:32.785Z,98195.84
2023-05-12T07:53:01.865Z,98188.50
2023-05-12T07:55:32.059Z,98190.38
2023-05-12T07:58:02.286Z,98198.97
2023-05-12T08:00:31.774Z,98194.78
2023-05-12T08:03:01.458Z,98188.72
2023-05-12T08:05:30.948Z,98180.31
2023-05-12T08:08:00.594Z,98174.88
2023-05-12T08:10:31.182Z,98174.44
2023-05-12T08:13:00.615Z,98178.25
2023-05-12T08:15:29.722Z,98159.03
2023-05-12T08:17:59.636Z,98165.69
2023-05-12T08:20:28.853Z,98155.47
2023-05-12T08:22:58.283Z,98151.50
2023-05-12T08:25:29.116Z,98146.88
2023-05-12T08:28:00.347Z,98155.31
2023-05-12T08:30:30.141Z,98142.81
2023-05-12T08:32:59.251Z,98134.13
2023-05-12T08:35:29.206Z,98134.56
2023-05-12T08:38:00.362Z,98131.81
2023-05-12T08:40:33.079Z,98125.41
2023-05-12T08:43:08.918Z,98126.16
2023-05-12T08:45:40.526Z,98117.63
2023-05-12T08:48:16.713Z,98123.03
2023-05-12T08:50:47.404Z,98114.03
2023-05-12T08:53:20.283Z,98113.88
2023-05-12T08:57:08.147Z,98110.03
2023-05-12T08:58:42.057Z,98106.78
2023-05-12T09:01:15.797Z,98112.06
2023-05-12T09:03:45.250Z,98112.78
2023-05-12T09:06:15.442Z,98104.88
2023-05-12T09:08:46.998Z,98094.44
2023-05-12T09:11:17.778Z,98093.19
2023-05-12T09:14:05.848Z,98091.34
2023-05-12T09:16:36.874Z,98088.53
2023-05-12T09:19:07.453Z,98083.56
2023-05-12T09:21:36.965Z,98083.06
2023-05-12T09:24:09.186Z,98082.31
2023-05-12T09:26:50.316Z,98087.09
2023-05-12T09:29:31.481Z,98073.66
2023-05-12T09:32:03.924Z,98076.84
2023-05-12T09:34:42.163Z,98068.78
2023-05-12T09:37:13.213Z,98061.47
2023-05-12T09:39:46.311Z,98058.56
2023-05-12T09:42:16.957Z,98060.41
2023-05-12T09:44:48.461Z,98059.81
2023-05-12T09:47:18.919Z,98057.09
2023-05-12T09:49:54.172Z,98051.72
2023-05-12T09:52:24.093Z,98051.59
2023-05-12T09:54:54.460Z,98051.72
2023-05-12T09:57:26.253Z,98054.78
2023-05-12T09:59:56.279Z,98049.16
2023-05-12T10:02:27.860Z,98046.59
2023-05-12T10:05:04.225Z,98037.44
2023-05-12T10:07:36.066Z,98041.13
2023-05-12T10:10:09.163Z,98037.94
2023-05-12T10:12:41.890Z,98028.31
2023-05-12T10:15:13.865Z,98025.19
2023-05-12T10:17:46.817Z,98019.81
2023-05-12T10:20:19.189Z,98020.59
2023-05-12T10:22:52.770Z,98015.56
2023-05-12T10:25:23.962Z,98011.31
2023-05-12T10:27:56.053Z,98004.94
2023-05-12T10:30:28.133Z,98007.16
2023-05-12T10:33:00.539Z,97999.09
2023-05-12T10:35:42.532Z,97999.00
2023-05-12T10:38:14.536Z,98004.66
2023-05-12T10:41:01.586Z,97992.09
2023-05-12T10:43:40.952Z,97992.56
2023-05-12T10:46:25.761Z,97987.66
2023-05-12T10:49:05.278Z,97981.94
2023-05-12T10:52:01.195Z,97987.66
2023-05-12T10:54:31.968Z,97983.44
2023-05-12T10:57:04.079Z,97973.03
2023-05-12T10:59:36.212Z,97983.53
2023-05-12T11:02:17.236Z,97974.84
2023-05-12T11:04:58.023Z,97967.88
2023-05-12T11:07:31.437Z,97973.38
2023-05-12T11:10:05.460Z,97966.84
2023-05-12T11:12:39.298Z,97959.66
2023-05-12T11:15:10.208Z,97966.75
2023-05-12T11:17:42.667Z,97959.22
2023-05-12T11:20:24.018Z,97957.63
2023-05-12T11:22:55.641Z,97968.94
2023-05-12T11:25:31.431Z,97957.63
2023-05-12T11:28:03.557Z,97957.22
2023-05-12T11:30:34.500Z,97965.50
2023-05-12T11:33:05.934Z,97962.56
2023-05-12T11:35:36.184Z,97959.50
2023-05-12T11:38:20.311Z,97955.53
2023-05-12T11:40:50.507Z,97957.38
2023-05-12T11:43:23.905Z,97958.53
2023-05-12T11:45:53.684Z,97951.09
2023-05-12T11:48:23.527Z,97951.81
2023-05-12T11:50:54.512Z,97951.69
2023-05-12T11:53:26.516Z,97944.66
2023-05-12T11:55:58.142Z,97953.13
2023-05-12T11:58:32.666Z,97948.94
2023-05-12T12:01:17.572Z,97948.72
2023-05-12T12:03:52.904Z,97945.88
2023-05-12T12:06:24.663Z,97945.44
2023-05-12T12:08:58.722Z,97945.78
2023-05-12T12:11:29.634Z,97948.75
2023-05-12T12:13:59.600Z,97948.31
2023-05-12T12:16:31.406Z,97946.25
2023-05-12T12:19:01.399Z,97938.63
2023-05-12T12:21:31.414Z,97941.63
2023-05-12T12:24:00.584Z,97947.66
2023-05-12T12:26:30.278Z,97940.06
2023-05-12T12:28:59.675Z,97938.81
2023-05-12T12:31:28.913Z,97940.28
2023-05-12T12:33:58.239Z,97938.94
2023-05-12T12:36:27.436Z,97946.94
2023-05-12T12:38:56.948Z,97941.22
2023-05-12T12:41:26.894Z,97939.28
2023-05-12T12:43:56.450Z,97941.00
2023-05-12T12:46:25.737Z,97941.94
2023-05-12T12:48:55.767Z,97941.03
2023-05-12T12:51:28.444Z,97943.97
2023-05-12T12:54:02.620Z,97944.22
2023-05-12T12:56:31.950Z,97940.09
2023-05-12T12:59:01.145Z,97945.81
2023-05-12T13:01:30.951Z,97949.97
2023-05-12T13:04:01.356Z,97956.13
2023-05-12T13:06:31.485Z,97949.63
2023-05-12T13:09:01.400Z,97957.69
2023-05-12T13:11:30.756Z,97952.81
2023-05-12T13:14:00.682Z,97957.69
2023-05-12T13:16:29.857Z,97950.38
2023-05-12T13:18:59.184Z,97953.31
2023-05-12T13:21:28.803Z,97957.38
2023-05-12T13:23:57.821Z,97954.09
2023-05-12T13:26:27.116Z,97960.06
2023-05-12T13:28:56.571Z,97959.47
2023-05-12T13:31:26.003Z,97967.41
2023-05-12T13:33:55.597Z,97964.28
2023-05-12T13:36:24.852Z,97962.91
2023-05-12T13:38:54.217Z,97973.22
2023-05-12T13:41:23.732Z,97962.84
2023-05-12T13:43:53.260Z,97963.06
2023-05-12T13:46:22.652Z,97969.84
2023-05-12T13:48:53.641Z,97976.25
2023-05-12T13:51:23.426Z,97971.00
2023-05-12T13:53:53.776Z,97975.06
2023-05-12T13:56:23.798Z,97977.97
2023-05-12T13:58:52.873Z,97976.81
2023-05-12T14:01:22.806Z,97979.56
2023-05-12T14:03:52.146Z,97986.97
2023-05-12T14:06:22.018Z,97979.09
2023-05-12T14:08:51.163Z,97983.75
2023-05-12T14:11:20.820Z,97987.59
2023-05-12T14:13:49.919Z,97982.00
2023-05-12T14:16:19.165Z,97987.00
2023-05-12T14:18:48.622Z,97986.06
2023-05-12T14:21:18.106Z,97989.94
2023-05-12T14:23:49.335Z,97982.38
2023-05-12T14:26:20.966Z,97990.91
2023-05-12T14:28:50.410Z,97991.56
2023-05-12T14:31:19.753Z,98001.34
2023-05-12T14:33:49.481Z,97998.47
2023-05-12T14:36:18.714Z,97992.09
2023-05-12T14:38:50.304Z,97999.78
2023-05-12T14:41:19.642Z,97993.88
2023-05-12T14:43:50.101Z,98003.66
2023-05-12T14:46:19.462Z,98000.59
2023-05-12T14:48:50.033Z,98002.06
2023-05-12T14:51:19.465Z,97995.78
2023-05-12T14:56:45.049Z,98001.56
2023-05-12T14:59:14.461Z,97994.50
2023-05-12T15:01:44.326Z,97995.66
2023-05-12T15:04:14.660Z,97997.91
2023-05-12T15:06:45.173Z,97998.69
2023-05-12T15:09:14.890Z,98004.00
2023-05-12T15:11:47.645Z,98014.59
2023-05-12T15:14:17.226Z,98012.19
2023-05-12T15:16:47.252Z,98019.84
2023-05-12T15:19:18.629Z,98018.59
2023-05-12T15:21:48.013Z,98020.38
2023-05-12T15:24:17.724Z,98020.03
2023-05-12T15:26:47.355Z,98020.53
2023-05-12T15:29:16.718Z,98023.28
2023-05-12T15:31:46.611Z,98014.63
2023-05-12T15:34:17.155Z,98024.75
2023-05-12T15:36:49.665Z,98028.91
2023-05-12T15:39:19.809Z,98020.59
2023-05-12T15:41:51.677Z,98030.69
2023-05-12T15:44:21.641Z,98032.28
2023-05-12T15:46:51.718Z,98029.41
2023-05-12T15:49:21.396Z,98029.41
2023-05-12T15:51:50.560Z,98028.13
2023-05-12T15:54:20.291Z,98041.28
2023-05-12T15:56:53.816Z,98037.28
2023-05-12T15:59:24.271Z,98040.16
2023-05-12T16:01:54.039Z,98038.91
2023-05-12T16:04:25.700Z,98033.94
2023-05-12T16:06:55.452Z,98035.69
2023-05-12T16:09:25.394Z,98049.31
2023-05-12T16:11:55.908Z,98040.69
2023-05-12T16:14:26.872Z,98049.50
2023-05-12T16:16:56.638Z,98046.44
2023-05-12T16:19:26.417Z,98054.94
2023-05-12T16:21:56.276Z,98050.13
2023-05-12T16:24:29.542Z,98057.50
2023-05-12T16:27:00.376Z,98053.47
2023-05-12T16:29:33.177Z,98057.00
2023-05-12T16:32:02.986Z,98053.66
2023-05-12T16:34:33.163Z,98059.91
2023-05-12T16:37:03.334Z,98061.50
2023-05-12T16:39:34.837Z,98070.63
2023-05-12T16:42:04.746Z,98075.94
2023-05-12T16:44:35.286Z,98065.38
2023-05-12T16:47:09.964Z,98077.22
2023-05-12T16:49:40.162Z,98064.72
2023-05-12T16:52:12.377Z,98065.38
2023-05-12T16:54:44.257Z,98070.81
2023-05-12T16:57:15.077Z,98071.47
2023-05-12T16:59:45.571Z,98074.31
2023-05-12T17:02:16.306Z,98082.13
2023-05-12T17:04:48.018Z,98074.94
2023-05-12T17:07:17.937Z,98081.84
2023-05-12T17:09:48.865Z,98073.19
2023-05-12T17:12:19.255Z,98079.75
2023-05-12T17:14:59.316Z,98079.13
2023-05-12T17:17:37.583Z,98079.78
2023-05-12T17:20:08.902Z,98086.47
2023-05-12T17:22:44.472Z,98088.25
2023-05-12T17:25:18.955Z,98087.75
2023-05-12T17:27:50.946Z,98081.34
2023-05-12T17:30:29.530Z,98080.38
2023-05-12T17:32:59.972Z,98071.25
2023-05-12T17:35:31.058Z,98078.94
2023-05-12T17:38:02.332Z,98087.72
2023-05-12T17:40:33.195Z,98084.34
2023-05-12T17:43:09.230Z,98085.81
2023-05-12T17:45:40.112Z,98091.06
2023-05-12T17:48:12.432Z,98094.06
2023-05-12T17:50:43.575Z,98096.63
2023-05-12T17:53:14.551Z,98092.94
2023-05-12T17:55:45.819Z,98096.78
2023-05-12T17:58:18.300Z,98094.38
2023-05-12T18:00:50.363Z,98096.31
2023-05-12T18:03:25.263Z,98093.91
2023-05-12T18:05:59.489Z,98090.38
2023-05-12T18:08:32.644Z,98092.63
2023-05-12T18:11:03.446Z,98088.75
2023-05-12T18:13:34.644Z,98083.16
2023-05-12T18:16:05.306Z,98083.97
2023-05-12T18:18:36.580Z,98080.44
2023-05-12T18:21:07.866Z,98086.38
2023-05-12T18:23:44.998Z,98077.25
2023-05-12T18:26:15.526Z,98078.38
2023-05-12T18:28:47.169Z,98071.97
2023-05-12T18:31:21.234Z,98074.34
2023-05-12T18:33:53.491Z,98078.97
2023-05-12T18:36:25.078Z,98068.75
2023-05-12T18:38:57.191Z,98071.00
2023-05-12T18:41:29.378Z,98072.91
2023-05-12T18:44:00.155Z,98070.19
2023-05-12T18:46:30.754Z,98082.47
2023-05-12T18:49:01.818Z,98081.19
2023-05-12T18:51:35.580Z,98086.13
2023-05-12T18:54:09.938Z,98086.78
2023-05-12T18:56:40.725Z,98086.28
2023-05-12T18:59:17.888Z,98091.25
2023-05-12T19:01:48.527Z,98088.53
2023-05-12T19:04:22.637Z,98096.69
2023-05-12T19:06:53.083Z,98090.94
2023-05-12T19:09:25.046Z,98092.66
2023-05-12T19:11:55.493Z,98100.34
2023-05-12T19:14:26.704Z,98095.72
2023-05-12T19:16:57.922Z,98098.72
2023-05-12T19:19:28.794Z,98101.44
2023-05-12T19:21:59.287Z,98100.34
2023-05-12T19:24:30.812Z,98100.81
2023-05-12T19:27:03.302Z,98110.91
2023-05-12T19:29:35.035Z,98095.03
2023-05-12T19:32:05.865Z,98101.44
2023-05-12T19:34:37.102Z,98106.75
2023-05-12T19:37:08.313Z,98111.38
2023-05-12T19:39:39.153Z,98103.22
2023-05-12T19:42:10.591Z,98107.06
2023-05-12T19:44:43.608Z,98104.84
2023-05-12T19:47:13.890Z,98102.91
2023-05-12T19:49:43.974Z,98094.75
2023-05-12T19:52:14.781Z,98101.31
2023-05-12T19:54:46.165Z,98090.44
2023-05-12T19:57:17.150Z,98083.38
2023-05-12T19:59:48.027Z,98080.19
2023-05-12T20:02:20.077Z,98080.50
2023-05-12T20:04:51.505Z,98077.31
2023-05-12T20:07:22.104Z,98076.00
2023-05-12T20:09:53.954Z,98068.97
2023-05-12T20:12:24.152Z,98060.66
2023-05-12T20:14:54.445Z,98066.38
2023-05-12T20:17:25.844Z,98061.28
2023-05-12T20:19:56.758Z,98065.06
2023-05-12T20:22:28.132Z,98064.28
2023-05-12T20:25:04.959Z,98062.19
2023-05-12T20:27:36.039Z,98051.31
2023-05-12T20:30:06.698Z,98044.78
2023-05-12T20:32:36.575Z,98047.50
2023-05-12T20:35:06.938Z,98038.19
2023-05-12T20:37:37.405Z,98028.66
2023-05-12T20:40:09.727Z,98021.59
2023-05-12T20:42:40.470Z,98022.69
2023-05-12T20:45:10.789Z,98013.28
2023-05-12T20:47:40.212Z,98020.94
2023-05-12T20:50:11.432Z,98008.28
2023-05-12T20:52:43.107Z,98007.00
2023-05-12T20:55:13.299Z,97993.56
2023-05-12T20:57:43.355Z,97994.19
2023-05-12T21:00:15.098Z,97997.84
2023-05-12T21:02:44.798Z,97988.22
2023-05-12T21:05:14.380Z,97988.38
2023-05-12T21:07:44.721Z,97981.66
2023-05-12T21:10:14.047Z,97984.38
2023-05-12T21:12:43.665Z,97982.47
2023-05-12T21:15:13.637Z,97987.56
2023-05-12T21:17:43.228Z,97984.84
2023-05-12T21:20:14.016Z,97989.97
2023-05-12T21:22:43.978Z,97984.03
2023-05-12T21:25:13.049Z,97971.91
2023-05-12T21:27:42.675Z,97960.41
2023-05-12T21:30:12.938Z,97938.38
2023-05-12T21:32:42.217Z,97893.00
2023-05-12T21:35:11.752Z,97869.19
2023-05-12T21:37:41.104Z,97874.94
2023-05-12T21:40:11.413Z,97909.13
2023-05-12T21:42:40.786Z,97958.50
2023-05-12T21:45:10.691Z,97974.19
2023-05-12T21:47:39.818Z,97976.56
2023-05-12T21:50:09.387Z,97969.53
2023-05-12T21:52:39.069Z,97983.44
2023-05-12T21:55:09.008Z,97985.19
2023-05-12T21:57:38.522Z,98009.94
2023-05-12T22:00:10.738Z,97997.78
2023-05-12T22:02:39.960Z,97988.34
2023-05-12T22:05:10.041Z,97975.38
2023-05-12T22:07:39.463Z,97978.72
2023-05-12T22:10:09.219Z,97979.34
2023-05-12T22:12:38.970Z,97979.47
2023-05-12T22:15:08.704Z,97964.91
2023-05-12T22:17:38.008Z,97976.38
2023-05-12T22:20:08.138Z,97986.25
2023-05-12T22:22:37.789Z,97989.59
2023-05-12T22:25:07.397Z,97999.66
2023-05-12T22:27:36.675Z,98014.34
2023-05-12T22:30:06.175Z,98014.63
2023-05-12T22:32:35.519Z,98019.25
2023-05-12T22:35:04.930Z,98018.78
2023-05-12T22:37:34.492Z,98018.78
2023-05-12T22:40:05.086Z,98023.91
2023-05-12T22:42:34.533Z,98030.13
2023-05-12T22:45:05.891Z,98032.06
2023-05-12T22:47:35.157Z,98048.63
2023-05-12T22:50:05.083Z,98057.06
2023-05-12T22:52:34.580Z,98065.84
2023-05-12T22:55:04.921Z,98070.47
2023-05-12T22:57:33.980Z,98070.66
2023-05-12T23:00:04.959Z,98062.03
2023-05-12T23:02:35.070Z,98069.25
2023-05-12T23:05:05.411Z,98078.66
2023-05-12T23:07:34.646Z,98081.09
2023-05-12T23:10:04.149Z,98100.56
2023-05-12T23:12:33.767Z,98105.00
2023-05-12T23:15:03.863Z,98112.69
2023-05-12T23:17:32.935Z,98128.34
2023-05-12T23:20:02.575Z,98143.00
2023-05-12T23:22:31.987Z,98144.13
2023-05-12T23:25:01.630Z,98159.09
2023-05-12T23:27:31.065Z,98161.81
2023-05-12T23:30:01.277Z,98162.13
2023-05-12T23:32:30.564Z,98163.56
2023-05-12T23:35:00.189Z,98161.94
2023-05-12T23:37:29.595Z,98167.66
2023-05-12T23:39:58.875Z,98161.25
2023-05-12T23:42:28.159Z,98173.22
2023-05-12T23:44:57.645Z,98175.25
2023-05-12T23:47:27.140Z,98182.28
2023-05-12T23:49:56.452Z,98191.00
2023-05-12T23:52:26.628Z,98199.75
2023-05-12T23:54:56.110Z,98195.16
2023-05-12T23:57:25.550Z,98194.34
2023-05-12T23:59:54.736Z,98204.09
